Aviation Digital Data Service (ADDS)

Output produced by TAFs form (2304 UTC 16 January 2018)
found at http://www.aviationweather.gov/adds/tafs/
 
KBNA 162253Z 33008KT 10SM FEW025 FEW200 M10/M17 A3059 RMK AO2 SLP367 T11001167
KBNA 161924Z 1619/1718 33010KT P6SM BKN020 OVC100 
     FM162000 33008KT P6SM SCT100 
     FM170800 33006KT P6SM OVC025 
     FM171600 34006KT P6SM SKC